createdAt,value
2023-03-29T00:02:16.133Z,30.20
2023-03-29T00:04:43.391Z,29.95
2023-03-29T00:07:10.604Z,29.79
2023-03-29T00:09:39.222Z,29.84
2023-03-29T00:12:07.056Z,30.56
2023-03-29T00:14:34.130Z,30.68
2023-03-29T00:17:01.287Z,30.62
2023-03-29T00:19:28.503Z,30.65
2023-03-29T00:21:55.582Z,30.82
2023-03-29T00:24:22.783Z,30.63
2023-03-29T00:26:51.763Z,30.33
2023-03-29T00:29:18.881Z,30.02
2023-03-29T00:31:46.187Z,29.74
2023-03-29T00:34:13.718Z,30.13
2023-03-29T00:36:40.801Z,30.45
2023-03-29T00:39:08.080Z,29.95
2023-03-29T00:41:35.404Z,30.43
2023-03-29T00:44:05.123Z,30.79
2023-03-29T00:46:32.416Z,30.69
2023-03-29T00:49:06.465Z,29.96
2023-03-29T00:51:41.083Z,29.57
2023-03-29T00:54:14.019Z,29.40
2023-03-29T00:56:46.718Z,29.68
2023-03-29T00:59:20.860Z,29.24
2023-03-29T01:01:53.643Z,29.87
2023-03-29T01:04:27.582Z,29.45
2023-03-29T01:07:00.945Z,29.80
2023-03-29T01:09:36.941Z,29.57
2023-03-29T01:12:13.764Z,29.32
2023-03-29T01:14:48.737Z,29.63
2023-03-29T01:17:15.990Z,29.79
2023-03-29T01:19:51.407Z,30.64
2023-03-29T01:22:30.700Z,29.97
2023-03-29T01:25:12.876Z,30.00
2023-03-29T01:27:53.078Z,29.52
2023-03-29T01:30:28.929Z,30.29
2023-03-29T01:33:02.639Z,29.47
2023-03-29T01:35:38.662Z,29.47
2023-03-29T01:38:12.435Z,29.69
2023-03-29T01:40:40.019Z,29.82
2023-03-29T01:43:21.999Z,30.29
2023-03-29T01:46:00.515Z,30.04
2023-03-29T01:48:35.036Z,29.64
2023-03-29T01:51:09.701Z,30.46
2023-03-29T01:53:43.259Z,30.60
2023-03-29T01:56:14.448Z,30.38
2023-03-29T01:58:49.249Z,39.14
2023-03-29T02:01:22.842Z,37.85
2023-03-29T02:03:55.231Z,32.54
2023-03-29T02:06:28.072Z,36.27
2023-03-29T02:08:56.109Z,35.74
2023-03-29T02:11:26.309Z,30.17
2023-03-29T02:13:55.073Z,33.87
2023-03-29T02:16:23.279Z,35.19
2023-03-29T02:18:54.228Z,35.64
2023-03-29T02:21:26.534Z,34.18
2023-03-29T02:23:59.813Z,34.22
2023-03-29T02:26:27.390Z,35.93
2023-03-29T02:28:56.196Z,34.93
2023-03-29T02:31:29.255Z,34.52
2023-03-29T02:34:02.730Z,33.94
2023-03-29T02:36:36.351Z,33.46
2023-03-29T02:39:04.894Z,33.64
2023-03-29T02:41:34.388Z,34.43
2023-03-29T02:44:07.485Z,32.44
2023-03-29T02:46:35.799Z,32.67
2023-03-29T02:49:02.964Z,33.65
2023-03-29T02:51:34.344Z,32.59
2023-03-29T02:54:06.749Z,30.51
2023-03-29T02:56:42.851Z,33.43
2023-03-29T02:59:11.580Z,32.19
2023-03-29T03:01:39.038Z,33.01
2023-03-29T03:04:06.233Z,32.71
2023-03-29T03:06:33.540Z,32.27
2023-03-29T03:09:00.760Z,32.61
2023-03-29T03:11:27.905Z,31.66
2023-03-29T03:13:55.282Z,31.46
2023-03-29T03:16:24.062Z,32.09
2023-03-29T03:18:52.418Z,30.63
2023-03-29T03:21:19.677Z,31.95
2023-03-29T03:23:47.027Z,30.72
2023-03-29T03:26:15.568Z,32.48
2023-03-29T03:28:42.685Z,30.82
2023-03-29T03:31:09.945Z,31.67
2023-03-29T03:33:38.627Z,31.74
2023-03-29T03:36:06.936Z,30.90
2023-03-29T03:38:35.035Z,31.58
2023-03-29T03:41:02.761Z,30.89
2023-03-29T03:43:30.843Z,29.82
2023-03-29T03:45:58.296Z,31.85
2023-03-29T03:48:26.408Z,30.80
2023-03-29T03:50:56.632Z,32.48
2023-03-29T03:53:25.147Z,32.49
2023-03-29T03:55:54.415Z,31.18
2023-03-29T03:58:22.960Z,31.31
2023-03-29T04:00:51.460Z,30.36
2023-03-29T04:03:19.327Z,31.32
2023-03-29T04:05:47.642Z,31.53
2023-03-29T04:08:16.228Z,30.75
2023-03-29T04:10:51.445Z,30.76
2023-03-29T04:13:18.818Z,31.71
2023-03-29T04:15:45.920Z,30.46
2023-03-29T04:18:13.241Z,32.49
2023-03-29T04:20:40.482Z,32.63
2023-03-29T04:23:07.706Z,32.44
2023-03-29T04:25:36.444Z,33.46
2023-03-29T04:28:03.775Z,32.96
2023-03-29T04:30:31.142Z,35.17
2023-03-29T04:32:58.467Z,32.76
2023-03-29T04:35:26.157Z,34.01
2023-03-29T04:37:53.745Z,34.56
2023-03-29T04:40:21.278Z,33.79
2023-03-29T04:42:50.159Z,32.95
2023-03-29T04:45:17.540Z,32.53
2023-03-29T04:47:44.927Z,32.55
2023-03-29T04:50:13.317Z,33.75
2023-03-29T04:52:40.417Z,33.92
2023-03-29T04:55:08.797Z,34.77
2023-03-29T04:57:35.939Z,34.35
2023-03-29T05:00:06.259Z,34.86
2023-03-29T05:02:33.473Z,33.58
2023-03-29T05:05:00.720Z,34.31
2023-03-29T05:07:27.920Z,34.28
2023-03-29T05:09:55.038Z,32.63
2023-03-29T05:12:22.266Z,30.72
2023-03-29T05:14:49.302Z,32.41
2023-03-29T05:17:17.901Z,32.61
2023-03-29T05:19:45.125Z,33.40
2023-03-29T05:22:12.198Z,33.25
2023-03-29T05:24:39.319Z,33.07
2023-03-29T05:27:06.577Z,33.17
2023-03-29T05:29:33.754Z,33.76
2023-03-29T05:32:01.017Z,33.04
2023-03-29T05:34:30.190Z,33.63
2023-03-29T05:36:57.337Z,32.55
2023-03-29T05:39:24.538Z,32.79
2023-03-29T05:41:51.642Z,32.57
2023-03-29T05:44:19.100Z,33.48
2023-03-29T05:46:46.239Z,33.08
2023-03-29T05:49:13.608Z,33.09
2023-03-29T05:51:42.295Z,33.50
2023-03-29T05:54:09.707Z,33.53
2023-03-29T05:56:37.134Z,32.90
2023-03-29T05:59:04.447Z,32.13
2023-03-29T06:01:31.708Z,32.57
2023-03-29T06:03:59.052Z,32.41
2023-03-29T06:06:26.352Z,32.36
2023-03-29T06:08:55.147Z,32.42
2023-03-29T06:11:22.385Z,32.31
2023-03-29T06:13:49.447Z,33.25
2023-03-29T06:16:16.699Z,32.64
2023-03-29T06:18:44.008Z,32.77
2023-03-29T06:21:11.194Z,32.25
2023-03-29T06:23:38.357Z,32.58
2023-03-29T06:26:07.639Z,32.98
2023-03-29T06:28:34.716Z,33.36
2023-03-29T06:33:29.959Z,32.32
2023-03-29T06:35:57.282Z,32.85
2023-03-29T06:38:24.984Z,32.84
2023-03-29T06:40:52.763Z,32.73
2023-03-29T06:43:21.439Z,32.93
2023-03-29T06:45:48.889Z,33.05
2023-03-29T06:48:16.102Z,32.60
2023-03-29T06:50:43.271Z,32.18
2023-03-29T06:53:10.606Z,32.55
2023-03-29T06:55:37.854Z,32.73
2023-03-29T06:58:05.163Z,31.69
2023-03-29T07:00:33.902Z,37.09
2023-03-29T07:03:05.976Z,36.58
2023-03-29T07:05:33.840Z,34.94
2023-03-29T07:08:01.080Z,32.66
2023-03-29T07:10:31.121Z,33.33
2023-03-29T07:12:59.583Z,32.84
2023-03-29T07:15:27.739Z,32.72
2023-03-29T07:17:56.369Z,31.16
2023-03-29T07:20:24.165Z,31.98
2023-03-29T07:22:52.321Z,32.28
2023-03-29T07:25:21.619Z,31.76
2023-03-29T07:27:49.201Z,31.98
2023-03-29T07:30:18.995Z,31.86
2023-03-29T07:32:46.893Z,32.61
2023-03-29T07:35:17.004Z,30.61
2023-03-29T07:37:45.681Z,31.66
2023-03-29T07:40:15.780Z,31.51
2023-03-29T07:42:44.542Z,31.79
2023-03-29T07:45:13.483Z,33.21
2023-03-29T07:47:41.311Z,32.92
2023-03-29T07:50:09.996Z,32.80
2023-03-29T07:52:38.781Z,31.77
2023-03-29T07:55:07.815Z,33.77
2023-03-29T07:57:35.942Z,32.51
2023-03-29T08:00:05.702Z,32.79
2023-03-29T08:02:32.952Z,32.46
2023-03-29T08:05:00.373Z,32.98
2023-03-29T08:07:27.880Z,32.06
2023-03-29T08:09:56.557Z,31.10
2023-03-29T08:12:25.033Z,31.08
2023-03-29T08:14:52.403Z,32.71
2023-03-29T08:17:19.533Z,32.88
2023-03-29T08:19:51.059Z,32.87
2023-03-29T08:22:19.667Z,32.69
2023-03-29T08:24:47.116Z,32.49
2023-03-29T08:27:15.921Z,31.79
2023-03-29T08:29:43.114Z,32.35
2023-03-29T08:32:10.559Z,31.68
2023-03-29T08:34:37.932Z,31.69
2023-03-29T08:37:05.179Z,31.79
2023-03-29T08:39:32.408Z,30.27
2023-03-29T08:42:20.853Z,32.55
2023-03-29T08:45:02.200Z,31.04
2023-03-29T08:47:43.385Z,31.91
2023-03-29T08:50:14.032Z,30.65
2023-03-29T08:52:47.283Z,30.57
2023-03-29T08:55:26.944Z,31.33
2023-03-29T08:57:59.537Z,31.12
2023-03-29T09:00:37.481Z,30.96
2023-03-29T09:03:15.065Z,31.37
2023-03-29T09:05:47.859Z,30.90
2023-03-29T09:08:17.940Z,31.09
2023-03-29T09:10:48.738Z,28.99
2023-03-29T09:13:34.996Z,30.47
2023-03-29T09:16:11.927Z,31.29
2023-03-29T09:18:54.054Z,29.72
2023-03-29T09:21:31.137Z,30.14
2023-03-29T09:24:14.533Z,31.34
2023-03-29T09:26:51.409Z,31.40
2023-03-29T09:29:50.132Z,31.45
2023-03-29T09:32:21.834Z,32.35
2023-03-29T09:35:01.107Z,32.43
2023-03-29T09:37:34.707Z,31.02
2023-03-29T09:40:11.150Z,31.58
2023-03-29T09:42:40.399Z,29.24
2023-03-29T09:45:10.800Z,31.58
2023-03-29T09:47:44.411Z,32.67
2023-03-29T09:50:30.032Z,31.75
2023-03-29T09:52:58.686Z,32.56
2023-03-29T09:55:30.080Z,35.51
2023-03-29T09:58:02.276Z,34.12
2023-03-29T10:00:31.029Z,32.80
2023-03-29T10:02:58.617Z,32.36
2023-03-29T10:05:30.094Z,33.03
2023-03-29T10:08:01.198Z,31.69
2023-03-29T10:10:31.095Z,33.93
2023-03-29T10:13:04.170Z,32.13
2023-03-29T10:15:33.899Z,33.71
2023-03-29T10:18:05.681Z,33.71
2023-03-29T10:20:37.445Z,33.80
2023-03-29T10:23:07.732Z,33.93
2023-03-29T10:25:42.104Z,32.39
2023-03-29T10:28:16.116Z,32.20
2023-03-29T10:30:53.326Z,32.42
2023-03-29T10:33:25.070Z,31.65
2023-03-29T10:35:55.284Z,31.38
2023-03-29T10:38:27.087Z,31.98
2023-03-29T10:41:02.940Z,31.15
2023-03-29T10:43:37.587Z,30.98
2023-03-29T10:46:12.432Z,30.93
2023-03-29T10:48:46.557Z,30.29
2023-03-29T10:51:15.822Z,31.49
2023-03-29T10:53:43.707Z,31.17
2023-03-29T10:56:34.274Z,31.87
2023-03-29T10:59:23.805Z,31.61
2023-03-29T11:02:27.317Z,31.23
2023-03-29T11:05:16.229Z,31.74
2023-03-29T11:08:05.292Z,34.43
2023-03-29T11:10:44.624Z,32.77
2023-03-29T11:13:23.612Z,35.31
2023-03-29T11:16:09.869Z,31.59
2023-03-29T11:18:55.987Z,34.95
2023-03-29T11:21:39.596Z,31.64
2023-03-29T11:24:36.874Z,32.49
2023-03-29T11:27:21.644Z,31.16
2023-03-29T11:30:06.779Z,33.52
2023-03-29T11:32:46.226Z,32.70
2023-03-29T11:35:39.276Z,33.58
2023-03-29T11:38:19.215Z,32.61
2023-03-29T11:40:58.567Z,32.92
2023-03-29T11:43:34.396Z,33.19
2023-03-29T11:46:11.774Z,33.45
2023-03-29T11:48:48.289Z,33.73
2023-03-29T11:51:23.620Z,33.38
2023-03-29T11:54:01.865Z,35.25
2023-03-29T11:56:37.198Z,36.32
2023-03-29T11:59:14.643Z,34.82
2023-03-29T12:01:50.696Z,35.25
2023-03-29T12:04:30.759Z,33.96
2023-03-29T12:07:11.711Z,34.21
2023-03-29T12:09:48.913Z,32.92
2023-03-29T12:12:25.983Z,32.29
2023-03-29T12:15:05.195Z,33.63
2023-03-29T12:17:39.205Z,31.79
2023-03-29T12:20:18.532Z,33.08
2023-03-29T12:22:47.871Z,33.24
2023-03-29T12:25:23.418Z,32.35
2023-03-29T12:28:09.052Z,33.58
2023-03-29T12:30:59.099Z,34.42
2023-03-29T12:33:55.313Z,32.67
2023-03-29T12:36:53.434Z,32.50
2023-03-29T12:39:26.857Z,30.55
2023-03-29T12:42:07.837Z,31.64
2023-03-29T12:44:36.127Z,30.51
2023-03-29T12:47:03.380Z,32.67
2023-03-29T12:49:36.066Z,31.81
2023-03-29T12:52:17.552Z,32.79
2023-03-29T12:54:54.610Z,31.43
2023-03-29T12:57:29.069Z,30.10
2023-03-29T12:59:56.639Z,29.71
2023-03-29T13:02:35.289Z,28.83
2023-03-29T13:05:03.269Z,29.51
2023-03-29T13:07:43.556Z,30.57
2023-03-29T13:10:34.496Z,30.55
2023-03-29T13:13:17.032Z,30.45
2023-03-29T13:15:45.603Z,30.10
2023-03-29T13:18:39.977Z,29.82
2023-03-29T13:21:20.996Z,28.59
2023-03-29T13:23:59.615Z,30.23
2023-03-29T13:26:52.940Z,29.53
2023-03-29T13:29:50.016Z,31.50
2023-03-29T13:32:30.489Z,33.44
2023-03-29T13:35:11.197Z,30.67
2023-03-29T13:37:51.736Z,31.60
2023-03-29T13:40:32.368Z,32.04
2023-03-29T13:43:02.011Z,30.90
2023-03-29T13:45:32.964Z,32.21
2023-03-29T13:48:06.248Z,31.36
2023-03-29T13:50:37.847Z,30.50
2023-03-29T13:53:15.976Z,32.10
2023-03-29T13:55:50.680Z,31.24
2023-03-29T13:58:33.175Z,30.54
2023-03-29T14:01:11.838Z,30.71
2023-03-29T14:03:44.876Z,31.16
2023-03-29T14:06:17.640Z,29.42
2023-03-29T14:08:45.459Z,32.63
2023-03-29T14:11:23.418Z,29.67
2023-03-29T14:13:54.089Z,30.70
2023-03-29T14:16:27.970Z,32.24
2023-03-29T14:18:59.634Z,29.45
2023-03-29T14:21:27.303Z,29.06
2023-03-29T14:23:57.517Z,28.96
2023-03-29T14:26:30.275Z,27.78
2023-03-29T14:28:59.694Z,27.02
2023-03-29T14:31:32.265Z,26.60
2023-03-29T14:34:02.222Z,26.76
2023-03-29T14:36:32.138Z,27.23
2023-03-29T14:39:05.211Z,27.34
2023-03-29T14:41:35.402Z,27.92
2023-03-29T14:44:04.657Z,27.76
2023-03-29T14:46:35.307Z,29.12
2023-03-29T14:49:11.662Z,29.84
2023-03-29T14:51:40.547Z,28.62
2023-03-29T14:54:11.475Z,27.84
2023-03-29T14:56:39.038Z,27.50
2023-03-29T14:59:25.618Z,26.89
2023-03-29T15:01:54.864Z,27.56
2023-03-29T15:04:22.158Z,27.78
2023-03-29T15:06:49.919Z,27.93
2023-03-29T15:09:23.294Z,27.22
2023-03-29T15:11:55.616Z,27.86
2023-03-29T15:14:26.452Z,30.18
2023-03-29T15:17:02.857Z,27.69
2023-03-29T15:19:30.796Z,28.12
2023-03-29T15:22:03.975Z,27.35
2023-03-29T15:24:33.910Z,28.13
2023-03-29T15:27:04.122Z,28.70
2023-03-29T15:29:39.953Z,29.40
2023-03-29T15:32:10.285Z,28.00
2023-03-29T15:34:37.677Z,27.86
2023-03-29T15:37:05.417Z,28.19
2023-03-29T15:39:34.121Z,27.84
2023-03-29T15:42:01.594Z,28.34
2023-03-29T15:44:33.421Z,28.93
2023-03-29T15:47:00.880Z,28.85
2023-03-29T15:49:29.536Z,28.88
2023-03-29T15:51:57.799Z,28.65
2023-03-29T15:54:25.538Z,27.83
2023-03-29T15:56:56.752Z,28.29
2023-03-29T15:59:24.629Z,27.70
2023-03-29T16:01:52.215Z,28.05
2023-03-29T16:04:22.283Z,27.71
2023-03-29T16:06:53.657Z,28.14
2023-03-29T16:09:22.311Z,28.44
2023-03-29T16:11:50.263Z,27.96
2023-03-29T16:14:21.814Z,28.19
2023-03-29T16:16:49.561Z,28.19
2023-03-29T16:19:16.977Z,28.55
2023-03-29T16:21:45.396Z,28.49
2023-03-29T16:24:17.958Z,28.31
2023-03-29T16:26:52.806Z,28.06
2023-03-29T16:29:22.793Z,28.64
2023-03-29T16:31:50.948Z,28.46
2023-03-29T16:34:18.856Z,28.46
2023-03-29T16:36:47.282Z,28.39
2023-03-29T16:39:16.272Z,28.58
2023-03-29T16:41:43.591Z,28.48
2023-03-29T16:44:16.118Z,28.78
2023-03-29T16:46:43.553Z,29.05
2023-03-29T16:49:14.151Z,28.69
2023-03-29T16:51:41.621Z,29.13
2023-03-29T16:54:10.893Z,29.30
2023-03-29T16:56:40.090Z,29.45
2023-03-29T16:59:07.250Z,29.25
2023-03-29T17:01:34.492Z,28.93
2023-03-29T17:04:02.127Z,29.47
2023-03-29T17:06:29.385Z,29.56
2023-03-29T17:08:56.965Z,29.46
2023-03-29T17:11:24.447Z,30.50
2023-03-29T17:13:53.186Z,29.92
2023-03-29T17:16:20.788Z,29.91
2023-03-29T17:18:48.344Z,30.22
2023-03-29T17:21:16.085Z,29.80
2023-03-29T17:23:43.668Z,30.72
2023-03-29T17:26:11.401Z,30.09
2023-03-29T17:28:39.096Z,30.27
2023-03-29T17:31:08.122Z,30.21
2023-03-29T17:33:36.332Z,29.79
2023-03-29T17:36:05.854Z,29.93
2023-03-29T17:38:34.225Z,29.93
2023-03-29T17:41:02.509Z,30.34
2023-03-29T17:43:31.966Z,30.61
2023-03-29T17:45:59.538Z,30.82
2023-03-29T17:50:58.030Z,31.00
2023-03-29T17:53:25.428Z,31.01
2023-03-29T17:55:53.004Z,31.31
2023-03-29T17:58:20.433Z,31.85
2023-03-29T18:00:47.908Z,31.03
2023-03-29T18:03:15.197Z,30.91
2023-03-29T18:05:44.364Z,30.67
2023-03-29T18:08:12.409Z,31.45
2023-03-29T18:10:39.695Z,32.34
2023-03-29T18:13:06.787Z,31.83
2023-03-29T18:15:34.006Z,32.38
2023-03-29T18:18:01.372Z,31.84
2023-03-29T18:20:28.661Z,32.01
2023-03-29T18:22:58.788Z,32.59
2023-03-29T18:25:26.272Z,32.47
2023-03-29T18:27:53.507Z,32.97
2023-03-29T18:30:21.621Z,33.24
2023-03-29T18:32:49.024Z,37.72
2023-03-29T18:35:16.573Z,32.99
2023-03-29T18:37:43.768Z,32.24
2023-03-29T18:40:13.371Z,32.98
2023-03-29T18:42:41.511Z,32.57
2023-03-29T18:45:11.192Z,32.98
2023-03-29T18:47:39.704Z,32.83
2023-03-29T18:50:09.892Z,33.48
2023-03-29T18:52:37.375Z,33.33
2023-03-29T18:55:05.904Z,33.07
2023-03-29T18:57:34.708Z,33.37
2023-03-29T19:00:02.410Z,35.42
2023-03-29T19:02:29.685Z,34.47
2023-03-29T19:04:57.113Z,35.26
2023-03-29T19:07:24.317Z,33.15
2023-03-29T19:09:51.606Z,33.79
2023-03-29T19:12:19.880Z,33.11
2023-03-29T19:14:51.729Z,33.37
2023-03-29T19:17:19.135Z,33.13
2023-03-29T19:19:47.234Z,33.35
2023-03-29T19:22:15.273Z,33.44
2023-03-29T19:24:42.433Z,33.83
2023-03-29T19:27:12.568Z,33.84
2023-03-29T19:29:44.494Z,33.44
2023-03-29T19:32:14.492Z,34.42
2023-03-29T19:34:50.635Z,34.99
2023-03-29T19:37:26.913Z,34.08
2023-03-29T19:40:03.930Z,33.93
2023-03-29T19:42:31.649Z,34.24
2023-03-29T19:44:59.153Z,33.65
2023-03-29T19:47:28.597Z,33.68
2023-03-29T19:49:57.428Z,34.90
2023-03-29T19:52:24.654Z,33.58
2023-03-29T19:54:52.146Z,34.44
2023-03-29T19:57:19.617Z,33.78
2023-03-29T19:59:47.507Z,34.09
2023-03-29T20:02:15.610Z,33.98
2023-03-29T20:04:44.613Z,34.50
2023-03-29T20:07:12.086Z,34.51
2023-03-29T20:09:39.344Z,37.13
2023-03-29T20:12:12.345Z,38.63
2023-03-29T20:14:40.193Z,36.23
2023-03-29T20:17:07.826Z,35.49
2023-03-29T20:19:36.561Z,34.80
2023-03-29T20:22:06.048Z,33.24
2023-03-29T20:24:33.948Z,32.95
2023-03-29T20:27:01.362Z,32.20
2023-03-29T20:29:28.826Z,31.21
2023-03-29T20:31:56.803Z,31.95
2023-03-29T20:34:24.219Z,32.55
2023-03-29T20:36:52.470Z,32.87
2023-03-29T20:39:23.003Z,34.05
2023-03-29T20:41:52.700Z,33.53
2023-03-29T20:44:20.386Z,32.72
2023-03-29T20:46:49.418Z,33.31
2023-03-29T20:49:19.531Z,33.72
2023-03-29T20:51:47.187Z,34.98
2023-03-29T20:54:14.285Z,34.91
2023-03-29T20:56:43.302Z,34.50
2023-03-29T20:59:11.887Z,35.29
2023-03-29T21:01:39.097Z,35.71
2023-03-29T21:04:07.388Z,35.10
2023-03-29T21:06:34.950Z,35.82
2023-03-29T21:09:02.146Z,35.13
2023-03-29T21:11:29.508Z,35.08
2023-03-29T21:13:58.367Z,35.20
2023-03-29T21:16:25.733Z,35.29
2023-03-29T21:18:53.668Z,35.37
2023-03-29T21:21:20.857Z,35.95
2023-03-29T21:23:48.545Z,36.10
2023-03-29T21:26:15.728Z,36.39
2023-03-29T21:28:44.806Z,35.87
2023-03-29T21:31:13.683Z,36.10
2023-03-29T21:33:40.928Z,35.03
2023-03-29T21:36:08.728Z,35.87
2023-03-29T21:38:36.014Z,36.31
2023-03-29T21:41:03.612Z,35.59
2023-03-29T21:43:31.083Z,36.27
2023-03-29T21:45:58.326Z,35.94
2023-03-29T21:48:27.265Z,35.01
2023-03-29T21:50:54.425Z,36.08
2023-03-29T21:53:21.628Z,35.85
2023-03-29T21:55:49.387Z,35.20
2023-03-29T21:58:16.891Z,36.08
2023-03-29T22:00:44.640Z,35.59
2023-03-29T22:03:12.081Z,35.06
2023-03-29T22:05:41.088Z,34.69
2023-03-29T22:08:08.289Z,34.64
2023-03-29T22:10:37.805Z,34.89
2023-03-29T22:13:05.290Z,34.74
2023-03-29T22:15:32.652Z,35.11
2023-03-29T22:18:00.008Z,34.84
2023-03-29T22:20:27.349Z,34.99
2023-03-29T22:22:56.049Z,34.76
2023-03-29T22:25:23.192Z,34.83
2023-03-29T22:27:50.589Z,34.93
2023-03-29T22:30:18.065Z,34.96
2023-03-29T22:32:45.563Z,34.91
2023-03-29T22:35:12.795Z,34.84
2023-03-29T22:37:44.015Z,35.29
2023-03-29T22:40:13.920Z,34.81
2023-03-29T22:42:41.198Z,35.05
2023-03-29T22:45:09.514Z,35.12
2023-03-29T22:47:36.658Z,35.44
2023-03-29T22:50:04.643Z,34.82
2023-03-29T22:52:31.771Z,35.09
2023-03-29T22:54:59.129Z,35.36
2023-03-29T22:57:28.000Z,35.46
2023-03-29T22:59:55.269Z,35.71
2023-03-29T23:02:22.751Z,35.22
2023-03-29T23:04:50.009Z,35.50
2023-03-29T23:07:17.373Z,35.61
2023-03-29T23:09:44.407Z,35.64
2023-03-29T23:12:11.626Z,34.93
2023-03-29T23:14:40.373Z,34.84
2023-03-29T23:17:07.527Z,34.68
2023-03-29T23:19:34.765Z,34.83
2023-03-29T23:22:01.986Z,34.94
2023-03-29T23:24:29.386Z,35.04
2023-03-29T23:26:56.789Z,34.95
2023-03-29T23:29:23.905Z,35.18
2023-03-29T23:31:52.732Z,35.26
2023-03-29T23:34:19.945Z,35.15
2023-03-29T23:36:47.116Z,35.81
2023-03-29T23:39:14.564Z,36.29
2023-03-29T23:41:41.825Z,36.23
2023-03-29T23:44:08.925Z,36.73
2023-03-29T23:46:36.195Z,38.06
2023-03-29T23:49:05.168Z,37.97
2023-03-29T23:51:32.289Z,38.09
2023-03-29T23:53:59.406Z,37.94
2023-03-29T23:56:27.006Z,37.99
2023-03-29T23:58:54.730Z,38.29
